Time;durP1;ratioP1;P1;durP2;ratioP2;P2;SDS_P1;SDS_P2;PMS_P1;PMS_P2;Temp;Humidity;BMP_temperature;BMP_pressure;BME280_temperature;BME280_humidity;BME280_pressure;Samples;Min_cycle;Max_cycle;Signal;HPM_P1;HPM_P2
2022/08/31 00:04:56;;;;;;;7.60;7.00;;;;;;;20.50;100.00;100509.06;4967528;28;20248;-77
2022/08/31 00:07:21;;;;;;;6.73;6.23;;;;;;;20.46;100.00;100512.75;4967896;28;20577;-76
2022/08/31 00:09:47;;;;;;;6.73;6.17;;;;;;;20.43;100.00;100510.25;4973535;28;20181;-75
2022/08/31 00:12:12;;;;;;;6.53;5.93;;;;;;;20.41;100.00;100506.88;4969275;28;20287;-77
2022/08/31 00:14:38;;;;;;;6.23;5.73;;;;;;;20.38;100.00;100501.75;4963618;28;20192;-75
2022/08/31 00:17:03;;;;;;;7.67;6.87;;;;;;;20.34;100.00;100502.81;4968440;28;20206;-75
2022/08/31 00:19:29;;;;;;;7.20;6.50;;;;;;;20.32;100.00;100497.63;4966110;28;20326;-75
2022/08/31 00:21:54;;;;;;;7.60;6.90;;;;;;;20.29;100.00;100499.53;4967676;28;20196;-76
2022/08/31 00:24:20;;;;;;;8.13;7.07;;;;;;;20.25;100.00;100491.81;4967302;28;20189;-76
2022/08/31 00:26:45;;;;;;;7.93;7.10;;;;;;;20.25;100.00;100483.06;4966235;28;20212;-77
2022/08/31 00:29:12;;;;;;;8.57;7.73;;;;;;;20.21;100.00;100473.59;4967369;28;20205;-78
2022/08/31 00:31:37;;;;;;;8.80;7.90;;;;;;;20.14;100.00;100462.53;4976063;28;20184;-77
2022/08/31 00:34:03;;;;;;;9.07;8.17;;;;;;;20.13;100.00;100459.97;4976099;28;20203;-75
2022/08/31 00:36:28;;;;;;;8.30;7.50;;;;;;;20.10;100.00;100459.19;4964654;28;20617;-75
2022/08/31 00:38:55;;;;;;;9.00;8.20;;;;;;;20.07;100.00;100458.50;4967952;28;20186;-76
2022/08/31 00:41:26;;;;;;;9.53;8.57;;;;;;;20.03;100.00;100454.28;4964902;28;21089;-74
2022/08/31 00:43:56;;;;;;;10.03;9.13;;;;;;;20.00;100.00;100460.56;4966250;28;20263;-77
2022/08/31 00:46:30;;;;;;;10.13;9.23;;;;;;;19.98;100.00;100451.88;4966515;28;20263;-76
2022/08/31 00:49:01;;;;;;;10.27;9.37;;;;;;;19.96;100.00;100448.47;4965287;28;20595;-76
2022/08/31 00:51:29;;;;;;;9.10;8.30;;;;;;;19.92;100.00;100445.13;4970721;28;20340;-75
2022/08/31 00:53:56;;;;;;;9.17;8.27;;;;;;;19.91;100.00;100445.19;4973131;28;20477;-76
2022/08/31 00:56:22;;;;;;;9.30;7.80;;;;;;;19.90;100.00;100435.59;4965771;28;20219;-78
2022/08/31 00:58:50;;;;;;;8.10;7.50;;;;;;;19.86;100.00;100442.75;4966623;28;20208;-76
2022/08/31 01:01:18;;;;;;;8.00;7.27;;;;;;;19.83;100.00;100439.41;4966068;28;20604;-77
2022/08/31 01:03:47;;;;;;;8.30;7.50;;;;;;;19.79;100.00;100436.91;4969341;28;20518;-76
2022/08/31 01:06:15;;;;;;;8.27;7.57;;;;;;;19.75;100.00;100424.84;4964006;28;20213;-75
2022/08/31 01:08:40;;;;;;;8.37;7.67;;;;;;;19.74;100.00;100443.31;4961978;28;20273;-75
2022/08/31 01:11:06;;;;;;;7.97;7.20;;;;;;;19.73;100.00;100445.09;4970816;28;20741;-79
2022/08/31 01:13:31;;;;;;;7.73;7.13;;;;;;;19.72;100.00;100440.75;4965682;28;20235;-77
2022/08/31 01:16:02;;;;;;;7.83;7.20;;;;;;;19.69;100.00;100445.28;4964814;28;20671;-75
2022/08/31 01:18:28;;;;;;;7.30;6.70;;;;;;;19.65;100.00;100431.44;4967369;28;20193;-75
2022/08/31 01:20:53;;;;;;;8.20;7.40;;;;;;;19.65;100.00;100441.94;4965567;28;20192;-77
2022/08/31 01:23:31;;;;;;;8.57;7.80;;;;;;;19.67;100.00;100445.34;4965100;28;20245;-76
2022/08/31 01:25:58;;;;;;;8.93;7.67;;;;;;;19.62;100.00;100449.94;4965506;28;20216;-75
2022/08/31 01:28:24;;;;;;;8.17;7.47;;;;;;;19.61;100.00;100448.25;4966275;28;20207;-77
2022/08/31 01:31:04;;;;;;;8.57;7.70;;;;;;;19.59;100.00;100445.69;4965924;28;20192;-75
2022/08/31 01:33:30;;;;;;;8.37;7.77;;;;;;;19.58;100.00;100445.78;4965152;28;20196;-78
2022/08/31 01:35:57;;;;;;;8.33;7.53;;;;;;;19.57;100.00;100446.69;4963819;28;20318;-79
2022/08/31 01:38:23;;;;;;;8.37;7.77;;;;;;;19.58;100.00;100453.66;4975803;28;20192;-77
2022/08/31 01:40:52;;;;;;;8.43;7.73;;;;;;;19.58;100.00;100440.53;4975783;28;20222;-75
2022/08/31 01:43:17;;;;;;;9.80;8.70;;;;;;;19.59;100.00;100444.81;4967876;28;20199;-77
2022/08/31 01:45:43;;;;;;;8.60;7.90;;;;;;;19.57;100.00;100444.06;4967377;28;20601;-78
2022/08/31 01:48:08;;;;;;;8.23;7.63;;;;;;;19.56;100.00;100432.69;4966730;28;20278;-75
2022/08/31 01:50:34;;;;;;;9.03;8.23;;;;;;;19.54;100.00;100444.19;4958210;28;20206;-76
2022/08/31 01:52:59;;;;;;;8.50;7.70;;;;;;;19.53;100.00;100432.81;4964488;28;20193;-77
2022/08/31 01:55:25;;;;;;;7.70;6.90;;;;;;;19.53;100.00;100421.50;4962229;28;20565;-75
2022/08/31 01:57:50;;;;;;;6.87;6.37;;;;;;;19.52;100.00;100418.00;4957552;28;20198;-77
2022/08/31 02:00:16;;;;;;;7.60;6.90;;;;;;;19.50;100.00;100412.81;4966101;28;20783;-75
2022/08/31 02:02:41;;;;;;;7.50;6.80;;;;;;;19.49;100.00;100407.66;4967051;28;20193;-80
2022/08/31 02:05:07;;;;;;;7.33;6.73;;;;;;;19.46;100.00;100398.13;4965369;28;20215;-79
2022/08/31 02:07:32;;;;;;;7.43;6.73;;;;;;;19.44;100.00;100396.50;4974227;28;20189;-76
2022/08/31 02:09:58;;;;;;;6.97;6.37;;;;;;;19.39;100.00;100380.97;4972944;28;20527;-76
2022/08/31 02:12:23;;;;;;;6.17;5.67;;;;;;;19.37;100.00;100385.44;4964902;28;20696;-76
2022/08/31 02:14:48;;;;;;;6.60;6.10;;;;;;;19.38;100.00;100373.16;4962720;28;20235;-76
2022/08/31 02:17:14;;;;;;;7.50;6.80;;;;;;;19.34;100.00;100362.81;4964079;28;20189;-77
2022/08/31 02:19:40;;;;;;;6.17;5.70;;;;;;;19.35;100.00;100353.16;4966027;28;20197;-77
2022/08/31 02:22:05;;;;;;;6.30;5.80;;;;;;;19.35;100.00;100355.78;4965823;28;20231;-76
2022/08/31 02:24:30;;;;;;;6.23;5.73;;;;;;;19.32;100.00;100356.78;4963023;28;20303;-77
2022/08/31 02:26:56;;;;;;;6.60;6.00;;;;;;;19.29;100.00;100349.03;4966342;28;20219;-77
2022/08/31 02:29:21;;;;;;;6.03;5.53;;;;;;;19.29;100.00;100353.41;4964148;28;20224;-77
2022/08/31 02:31:46;;;;;;;6.43;5.87;;;;;;;19.25;100.00;100346.63;4966808;28;20207;-76
2022/08/31 02:34:12;;;;;;;6.40;5.90;;;;;;;19.23;100.00;100336.16;4971920;28;20225;-74
2022/08/31 02:36:38;;;;;;;6.67;6.13;;;;;;;19.18;100.00;100328.50;4967871;28;20622;-75
2022/08/31 02:39:04;;;;;;;6.13;5.63;;;;;;;19.15;100.00;100318.16;4962963;28;20205;-77
2022/08/31 02:41:29;;;;;;;6.20;5.70;;;;;;;19.13;100.00;100317.38;4970620;28;20279;-76
2022/08/31 02:43:55;;;;;;;6.33;5.80;;;;;;;19.08;100.00;100319.34;4966111;28;20994;-76
2022/08/31 02:46:20;;;;;;;5.80;5.30;;;;;;;19.04;100.00;100315.16;4968514;28;20210;-76
2022/08/31 02:48:45;;;;;;;6.43;5.87;;;;;;;19.03;100.00;100313.44;4968973;28;20196;-76
2022/08/31 02:51:12;;;;;;;5.77;5.33;;;;;;;19.03;100.00;100324.81;4969546;28;20278;-77
2022/08/31 02:53:38;;;;;;;5.63;5.23;;;;;;;19.01;100.00;100326.66;4967867;28;20202;-78
2022/08/31 02:56:04;;;;;;;5.67;5.23;;;;;;;18.98;100.00;100325.94;4967154;28;20591;-76
2022/08/31 02:58:30;;;;;;;6.30;5.77;;;;;;;18.97;100.00;100340.78;4969344;28;20196;-77
2022/08/31 03:00:56;;;;;;;6.40;5.80;;;;;;;18.96;100.00;100359.22;4971424;28;20201;-76
2022/08/31 03:03:21;;;;;;;5.70;5.20;;;;;;;18.93;100.00;100354.09;4974554;28;20195;-76
2022/08/31 03:05:48;;;;;;;5.27;4.77;;;;;;;18.92;100.00;100347.13;4960862;28;20205;-75
2022/08/31 03:08:13;;;;;;;5.40;4.90;;;;;;;18.90;100.00;100323.59;4963784;28;20281;-75
2022/08/31 03:10:39;;;;;;;5.43;5.03;;;;;;;18.93;100.00;100320.81;4972980;28;20708;-78
2022/08/31 03:13:05;;;;;;;5.40;4.90;;;;;;;18.97;100.00;100319.81;4966893;28;20195;-77
2022/08/31 03:15:30;;;;;;;5.53;5.13;;;;;;;19.00;100.00;100316.19;4967164;28;20384;-75
2022/08/31 03:17:56;;;;;;;5.03;4.63;;;;;;;19.00;100.00;100338.03;4969554;28;20190;-77
2022/08/31 03:20:23;;;;;;;5.20;4.80;;;;;;;18.93;100.00;100335.72;4970604;28;20200;-75
2022/08/31 03:22:49;;;;;;;5.27;4.77;;;;;;;18.86;100.00;100348.25;4967558;28;20242;-75
2022/08/31 03:25:16;;;;;;;5.00;4.57;;;;;;;18.80;100.00;100352.00;4967338;28;20227;-76
2022/08/31 03:27:42;;;;;;;5.20;4.80;;;;;;;18.79;100.00;100342.41;4973567;28;20814;-76
2022/08/31 03:30:11;;;;;;;5.63;5.23;;;;;;;18.77;100.00;100339.00;4969608;28;20202;-77
2022/08/31 03:32:36;;;;;;;5.50;5.10;;;;;;;18.81;100.00;100353.69;4977606;28;20244;-78
2022/08/31 03:35:03;;;;;;;6.43;5.87;;;;;;;18.89;100.00;100353.38;4980751;28;20305;-79
2022/08/31 03:37:29;;;;;;;6.53;5.83;;;;;;;18.86;100.00;100356.13;4966979;28;20208;-77
2022/08/31 03:39:54;;;;;;;7.10;6.40;;;;;;;18.88;100.00;100360.38;4973392;28;20679;-76
2022/08/31 03:42:20;;;;;;;7.30;6.70;;;;;;;18.86;100.00;100367.44;4973510;28;20198;-78
2022/08/31 03:44:46;;;;;;;7.73;7.13;;;;;;;18.76;100.00;100373.13;4969812;28;20291;-75
2022/08/31 03:47:12;;;;;;;8.00;7.40;;;;;;;18.64;100.00;100369.28;4969083;28;20264;-75
2022/08/31 03:49:38;;;;;;;8.10;7.40;;;;;;;18.57;100.00;100364.28;4970117;28;20222;-77
2022/08/31 03:52:04;;;;;;;8.33;7.53;;;;;;;18.54;100.00;100379.28;4965951;28;20281;-78
2022/08/31 03:54:30;;;;;;;7.83;7.13;;;;;;;18.54;100.00;100387.97;4969821;28;20213;-75
2022/08/31 03:56:55;;;;;;;8.43;7.73;;;;;;;18.48;100.00;100390.88;4971275;28;20760;-78
2022/08/31 03:59:20;;;;;;;8.40;7.70;;;;;;;18.47;100.00;100397.03;4968052;28;20195;-77
2022/08/31 04:01:46;;;;;;;7.90;7.30;;;;;;;18.47;100.00;100397.03;4968375;28;20198;-78
2022/08/31 04:04:12;;;;;;;8.00;7.40;;;;;;;18.48;100.00;100403.09;4963909;28;20174;-76
2022/08/31 04:06:42;;;;;;;8.83;8.13;;;;;;;18.41;100.00;100405.09;4966503;28;20232;-75
2022/08/31 04:09:07;;;;;;;9.17;8.30;;;;;;;18.39;100.00;100393.84;4972553;28;20212;-76
2022/08/31 04:11:37;;;;;;;8.50;7.90;;;;;;;18.37;100.00;100406.16;4974741;28;20285;-76
2022/08/31 04:14:03;;;;;;;8.53;7.80;;;;;;;18.33;100.00;100415.06;4971157;28;20585;-75
2022/08/31 04:16:32;;;;;;;8.93;8.17;;;;;;;18.28;100.00;100423.09;4976958;28;20224;-76
2022/08/31 04:18:57;;;;;;;9.17;8.27;;;;;;;18.28;100.00;100438.81;4970705;28;20202;-76
2022/08/31 04:21:26;;;;;;;9.93;9.03;;;;;;;18.29;100.00;100435.28;4968958;28;20546;-76
2022/08/31 04:23:53;;;;;;;9.87;9.07;;;;;;;18.25;100.00;100441.56;4968843;28;20200;-77
2022/08/31 04:26:29;;;;;;;9.93;9.03;;;;;;;18.26;100.00;100446.72;4972053;28;20212;-76
2022/08/31 04:28:55;;;;;;;11.17;10.17;;;;;;;18.28;100.00;100449.28;4963541;28;20333;-76
2022/08/31 04:31:22;;;;;;;10.73;9.83;;;;;;;18.32;100.00;100447.41;4963032;28;20272;-75
2022/08/31 04:33:48;;;;;;;10.90;10.00;;;;;;;18.31;100.00;100450.94;4967392;28;20201;-75
2022/08/31 04:36:16;;;;;;;11.03;10.13;;;;;;;18.31;100.00;100453.56;4963304;28;20645;-76
2022/08/31 04:38:43;;;;;;;11.80;10.90;;;;;;;18.33;100.00;100454.34;4966973;28;20210;-77
2022/08/31 04:41:11;;;;;;;12.37;11.33;;;;;;;18.34;100.00;100456.06;4974164;28;20199;-76
2022/08/31 04:43:43;;;;;;;13.00;11.93;;;;;;;18.36;100.00;100454.25;4964996;28;20564;-77
2022/08/31 04:46:09;;;;;;;13.23;12.20;;;;;;;18.34;100.00;100459.53;4962246;28;20234;-76
2022/08/31 04:48:34;;;;;;;13.27;12.07;;;;;;;18.34;100.00;100469.16;4962795;28;20281;-75
2022/08/31 04:51:12;;;;;;;13.47;12.33;;;;;;;18.36;100.00;100478.66;4973339;28;20573;-76
2022/08/31 04:53:39;;;;;;;13.43;12.23;;;;;;;18.37;100.00;100477.75;4979394;28;20289;-75
2022/08/31 04:56:36;;;;;;;12.90;11.70;;;;;;;18.39;100.00;100493.41;4965784;28;20578;-75
2022/08/31 04:59:05;;;;;;;12.77;11.77;;;;;;;18.41;100.00;100489.81;4959601;28;20194;-75
2022/08/31 05:01:33;;;;;;;11.37;10.47;;;;;;;18.42;100.00;100483.69;4977063;28;20193;-78
2022/08/31 05:04:00;;;;;;;12.73;11.60;;;;;;;18.46;100.00;100481.78;4974357;28;20683;-75
2022/08/31 05:06:29;;;;;;;12.93;11.73;;;;;;;18.43;100.00;100488.00;4966888;28;20252;-77
2022/08/31 05:08:57;;;;;;;14.00;12.60;;;;;;;18.43;100.00;100495.00;4965254;28;20193;-78
2022/08/31 05:11:25;;;;;;;13.67;12.57;;;;;;;18.43;100.00;100484.50;4966433;28;20227;-75
2022/08/31 05:13:51;;;;;;;12.67;11.47;;;;;;;18.42;100.00;100494.16;4971977;28;20572;-76
2022/08/31 05:16:17;;;;;;;12.37;11.37;;;;;;;18.43;100.00;100495.88;4964648;28;20222;-76
2022/08/31 05:18:44;;;;;;;12.37;11.27;;;;;;;18.46;100.00;100496.63;4965627;28;20194;-75
2022/08/31 05:21:15;;;;;;;12.17;11.13;;;;;;;18.47;100.00;100496.59;4966516;28;20263;-76
2022/08/31 05:23:41;;;;;;;10.73;9.73;;;;;;;18.50;100.00;100499.09;4977145;28;20297;-78
2022/08/31 05:26:08;;;;;;;11.90;10.90;;;;;;;18.51;100.00;100498.19;4953456;28;20233;-76
2022/08/31 05:28:35;;;;;;;11.67;10.67;;;;;;;18.54;100.00;100505.06;4974766;28;20200;-75
2022/08/31 05:31:00;;;;;;;12.17;11.17;;;;;;;18.55;100.00;100498.91;4967774;28;20269;-76
2022/08/31 05:33:29;;;;;;;11.73;10.73;;;;;;;18.57;100.00;100505.78;4962250;28;20196;-77
2022/08/31 05:35:54;;;;;;;11.77;10.77;;;;;;;18.57;100.00;100513.66;4974969;28;20215;-77
2022/08/31 05:38:20;;;;;;;11.67;10.77;;;;;;;18.58;100.00;100506.66;4966762;28;20189;-74
2022/08/31 05:40:53;;;;;;;12.90;11.80;;;;;;;18.59;100.00;100503.97;4967409;28;20208;-76
2022/08/31 05:43:18;;;;;;;12.00;11.03;;;;;;;18.59;100.00;100513.63;4962994;28;20572;-75
2022/08/31 05:45:44;;;;;;;11.20;10.30;;;;;;;18.62;100.00;100515.25;4966216;28;20219;-77
2022/08/31 05:48:09;;;;;;;11.17;10.23;;;;;;;18.63;100.00;100523.03;4965882;28;20206;-76
2022/08/31 05:50:36;;;;;;;12.10;11.10;;;;;;;18.67;100.00;100519.41;4948038;29;20183;-76
2022/08/31 05:53:02;;;;;;;11.20;10.30;;;;;;;18.68;100.00;100515.88;4963578;28;20291;-78
2022/08/31 05:55:28;;;;;;;11.03;10.07;;;;;;;18.68;100.00;100518.50;4966524;28;20212;-77
2022/08/31 05:57:53;;;;;;;12.50;11.40;;;;;;;18.67;100.00;100529.88;4967356;28;20220;-76
2022/08/31 06:00:19;;;;;;;11.87;10.87;;;;;;;18.65;100.00;100530.88;4970428;28;20681;-76
2022/08/31 06:02:44;;;;;;;11.47;10.47;;;;;;;18.64;100.00;100529.16;4968355;28;20561;-76
2022/08/31 06:05:10;;;;;;;11.17;10.27;;;;;;;18.64;100.00;100526.53;4964623;28;20219;-78
2022/08/31 06:07:35;;;;;;;10.83;9.93;;;;;;;18.63;100.00;100523.03;4966273;28;20634;-76
2022/08/31 06:10:01;;;;;;;11.23;10.33;;;;;;;18.64;100.00;100532.63;4973271;28;20274;-75
2022/08/31 06:12:27;;;;;;;11.10;10.10;;;;;;;18.66;100.00;100533.41;4976247;28;20682;-76
2022/08/31 06:14:54;;;;;;;10.77;9.93;;;;;;;18.68;100.00;100539.47;4974204;28;20195;-77
2022/08/31 06:17:19;;;;;;;10.67;9.77;;;;;;;18.73;100.00;100534.03;4972983;28;20899;-75
2022/08/31 06:19:45;;;;;;;10.50;9.70;;;;;;;18.77;100.00;100540.00;4976581;28;20285;-77
2022/08/31 06:22:10;;;;;;;10.47;9.67;;;;;;;18.80;100.00;100530.28;4978614;28;20443;-77
2022/08/31 06:24:37;;;;;;;10.83;9.93;;;;;;;18.83;100.00;100534.53;4976715;28;20197;-76
2022/08/31 06:27:04;;;;;;;10.10;9.30;;;;;;;18.84;100.00;100539.69;4978961;28;20212;-75
2022/08/31 06:29:31;;;;;;;10.13;9.17;;;;;;;18.86;100.00;100537.03;4974055;28;20274;-75
2022/08/31 06:31:56;;;;;;;9.67;8.97;;;;;;;18.89;100.00;100536.91;4969744;28;20200;-77
2022/08/31 06:34:23;;;;;;;10.30;9.37;;;;;;;18.93;100.00;100535.03;4965347;28;20581;-76
2022/08/31 06:36:48;;;;;;;10.00;9.20;;;;;;;18.96;100.00;100534.94;4967789;28;20230;-75
2022/08/31 06:39:14;;;;;;;8.70;8.00;;;;;;;18.98;100.00;100528.72;4967687;28;20194;-75
2022/08/31 06:41:41;;;;;;;8.97;8.27;;;;;;;19.01;100.00;100522.47;4970505;28;20242;-76
2022/08/31 06:44:09;;;;;;;8.70;8.00;;;;;;;19.08;100.00;100530.94;4979990;28;20219;-77
2022/08/31 06:46:36;;;;;;;9.17;8.47;;;;;;;19.12;100.00;100532.53;4977057;28;20236;-76
2022/08/31 06:49:03;;;;;;;8.93;8.17;;;;;;;19.16;100.00;100534.97;4981708;28;20190;-75
2022/08/31 06:51:35;;;;;;;8.83;8.13;;;;;;;19.22;100.00;100533.84;4979919;28;20235;-76
2022/08/31 06:54:01;;;;;;;8.27;7.63;;;;;;;19.24;100.00;100533.81;4977991;28;20203;-77
2022/08/31 06:56:26;;;;;;;9.00;8.30;;;;;;;19.27;100.00;100539.78;4973554;28;20280;-77
2022/08/31 06:58:53;;;;;;;9.30;8.40;;;;;;;19.27;100.00;100531.06;4965721;28;20196;-74
2022/08/31 07:01:28;;;;;;;8.47;7.77;;;;;;;19.25;100.00;100532.91;4964762;28;20247;-76
2022/08/31 07:03:55;;;;;;;8.87;8.17;;;;;;;19.26;100.00;100521.50;4967687;28;20280;-76
2022/08/31 07:06:26;;;;;;;10.17;8.27;;;;;;;19.31;100.00;100524.75;4966914;28;20576;-77
2022/08/31 07:08:56;;;;;;;10.00;8.63;;;;;;;19.34;100.00;100524.63;4971278;28;20538;-76
2022/08/31 07:11:38;;;;;;;9.60;8.80;;;;;;;19.38;100.00;100528.84;4971395;28;20249;-75
2022/08/31 07:14:05;;;;;;;8.67;7.80;;;;;;;19.40;100.00;100527.00;4968469;28;20540;-78
2022/08/31 07:16:31;;;;;;;9.10;8.30;;;;;;;19.44;100.00;100527.72;4974209;28;20257;-77
2022/08/31 07:18:59;;;;;;;9.63;8.83;;;;;;;19.48;100.00;100535.41;4978170;28;20230;-76
2022/08/31 07:21:38;;;;;;;8.73;8.13;;;;;;;19.51;100.00;100534.44;4970365;28;20233;-76
2022/08/31 07:24:07;;;;;;;8.53;7.83;;;;;;;19.54;100.00;100533.44;4979880;28;20195;-77
2022/08/31 07:26:44;;;;;;;7.97;7.37;;;;;;;19.56;100.00;100529.81;4968655;28;20695;-76
2022/08/31 07:29:13;;;;;;;8.20;7.60;;;;;;;19.58;100.00;100530.63;4976941;28;20196;-76
2022/08/31 07:31:46;;;;;;;8.10;7.50;;;;;;;19.61;100.00;100534.88;4968236;28;20560;-76
2022/08/31 07:34:32;;;;;;;8.10;7.50;;;;;;;19.65;100.00;100539.09;4967794;28;20507;-77
2022/08/31 07:42:34;;;;;;;8.93;8.13;;;;;;;19.71;100.00;100538.81;4963280;28;20210;-75
2022/08/31 07:45:04;;;;;;;9.43;8.50;;;;;;;19.77;100.00;100542.97;4964703;28;20187;-74
2022/08/31 07:47:31;;;;;;;8.83;8.13;;;;;;;19.83;100.00;100544.47;4969684;28;20252;-75
2022/08/31 07:49:59;;;;;;;8.53;7.83;;;;;;;19.90;100.00;100548.53;4978551;28;20192;-77
2022/08/31 07:52:30;;;;;;;8.53;7.83;;;;;;;19.95;100.00;100544.81;4980208;28;20201;-77
2022/08/31 07:55:05;;;;;;;8.00;7.40;;;;;;;20.02;100.00;100549.78;4980054;28;20634;-75
2022/08/31 07:57:35;;;;;;;8.20;7.60;;;;;;;20.13;100.00;100551.94;4976855;28;20212;-75
2022/08/31 08:00:07;;;;;;;7.80;7.20;;;;;;;20.24;100.00;100549.66;4972903;28;20238;-76
2022/08/31 08:02:37;;;;;;;8.17;7.47;;;;;;;20.36;100.00;100548.28;4973420;28;20190;-76
2022/08/31 08:05:09;;;;;;;7.07;6.57;;;;;;;20.52;100.00;100566.81;4967122;28;20625;-76
2022/08/31 08:07:37;;;;;;;7.50;6.90;;;;;;;20.68;100.00;100564.34;4966856;28;20653;-76
2022/08/31 08:10:05;;;;;;;7.00;6.40;;;;;;;20.82;100.00;100561.06;4971669;28;20191;-76
2022/08/31 08:12:35;;;;;;;6.20;5.70;;;;;;;20.93;100.00;100571.94;4979444;28;21337;-77
2022/08/31 08:15:01;;;;;;;7.00;6.50;;;;;;;21.01;100.00;100572.41;4979186;28;20259;-77
2022/08/31 08:17:27;;;;;;;7.33;6.73;;;;;;;21.08;100.00;100567.72;4982685;28;20197;-76
2022/08/31 08:19:52;;;;;;;6.83;6.33;;;;;;;21.22;100.00;100580.22;4968904;28;20193;-76
2022/08/31 08:22:18;;;;;;;7.63;7.03;;;;;;;21.38;100.00;100572.38;4971036;28;20680;-77
2022/08/31 08:24:45;;;;;;;8.53;7.77;;;;;;;21.51;100.00;100577.91;4976145;28;20236;-76
2022/08/31 08:27:10;;;;;;;9.03;8.33;;;;;;;21.60;100.00;100582.72;4970019;28;20201;-75
2022/08/31 08:29:36;;;;;;;7.83;7.23;;;;;;;21.70;100.00;100580.47;4966974;28;20193;-76
2022/08/31 08:32:02;;;;;;;7.93;7.23;;;;;;;21.87;100.00;100584.03;4966615;28;20198;-78
2022/08/31 08:34:27;;;;;;;6.80;6.30;;;;;;;22.07;100.00;100583.88;4966721;28;20708;-78
2022/08/31 08:36:53;;;;;;;8.03;7.33;;;;;;;22.19;100.00;100582.34;4972277;28;20312;-76
2022/08/31 08:39:19;;;;;;;7.90;7.30;;;;;;;22.18;100.00;100583.28;4965376;28;20709;-76
2022/08/31 08:41:46;;;;;;;8.23;7.63;;;;;;;22.25;100.00;100590.88;4975463;28;20193;-76
2022/08/31 08:44:14;;;;;;;9.23;8.53;;;;;;;22.31;100.00;100588.75;4966351;28;20190;-76
2022/08/31 08:46:47;;;;;;;8.53;7.83;;;;;;;22.43;100.00;100596.97;4966787;28;20279;-76
2022/08/31 08:49:33;;;;;;;10.73;9.73;;;;;;;22.52;100.00;100597.31;4967003;28;20186;-77
2022/08/31 08:52:10;;;;;;;9.10;8.40;;;;;;;22.49;100.00;100600.13;4977292;28;20572;-77
2022/08/31 08:54:39;;;;;;;9.23;8.43;;;;;;;22.49;100.00;100602.75;4960907;28;20201;-78
2022/08/31 08:57:17;;;;;;;9.63;8.83;;;;;;;22.48;100.00;100594.94;4963067;28;20594;-76
2022/08/31 08:59:45;;;;;;;8.93;8.23;;;;;;;22.51;100.00;100606.16;4966461;28;20212;-78
2022/08/31 09:02:16;;;;;;;9.47;8.67;;;;;;;22.50;100.00;100612.38;4969752;28;20220;-80
2022/08/31 09:04:59;;;;;;;9.70;8.90;;;;;;;22.43;100.00;100615.41;4966085;28;20197;-76
2022/08/31 09:07:55;;;;;;;9.47;8.77;;;;;;;22.33;100.00;100615.88;4964209;28;20665;-76
2022/08/31 09:10:35;;;;;;;10.90;10.03;;;;;;;22.12;100.00;100622.28;4977481;28;20666;-75
2022/08/31 09:13:02;;;;;;;11.43;10.43;;;;;;;21.97;100.00;100630.06;4965571;28;20674;-76
2022/08/31 09:15:38;;;;;;;10.20;9.40;;;;;;;21.89;100.00;100629.59;4974430;28;20595;-75
2022/08/31 09:18:23;;;;;;;9.83;9.03;;;;;;;21.90;100.00;100624.25;4980379;28;20186;-75
2022/08/31 09:21:20;;;;;;;8.63;8.03;;;;;;;21.97;100.00;100627.41;4968600;28;20190;-76
2022/08/31 09:24:12;;;;;;;8.77;7.97;;;;;;;22.01;100.00;100621.06;4973126;28;20640;-76
2022/08/31 09:26:56;;;;;;;8.70;8.10;;;;;;;22.06;100.00;100628.72;4968394;28;20206;-77
2022/08/31 09:29:29;;;;;;;8.17;7.03;;;;;;;22.08;100.00;100626.88;4973824;28;20188;-76
2022/08/31 09:32:08;;;;;;;7.57;6.90;;;;;;;21.97;100.00;100630.06;4973752;28;20208;-77
2022/08/31 09:34:40;;;;;;;6.90;6.40;;;;;;;21.97;100.00;100634.47;4962934;28;20284;-76
2022/08/31 09:37:15;;;;;;;7.90;7.30;;;;;;;21.92;100.00;100632.94;4959821;28;20220;-79
2022/08/31 09:39:49;;;;;;;7.27;6.57;;;;;;;21.87;100.00;100627.03;4964457;28;20289;-75
2022/08/31 09:42:29;;;;;;;7.27;6.57;;;;;;;21.80;100.00;100623.03;4964545;28;20654;-76
2022/08/31 09:44:59;;;;;;;7.17;6.57;;;;;;;21.67;100.00;100629.84;4974245;28;20716;-75
2022/08/31 09:47:54;;;;;;;7.43;6.73;;;;;;;21.53;100.00;100633.97;4965625;28;20685;-76
2022/08/31 09:50:36;;;;;;;7.20;6.60;;;;;;;21.40;100.00;100644.25;4963534;28;20202;-78
2022/08/31 09:56:12;;;;;;;8.80;8.10;;;;;;;21.08;100.00;100646.66;4966583;28;20232;-77
2022/08/31 09:58:42;;;;;;;9.67;8.77;;;;;;;20.90;100.00;100661.53;4973119;28;20189;-78
2022/08/31 10:01:13;;;;;;;10.60;9.50;;;;;;;20.39;100.00;100648.00;4967239;28;20197;-76
2022/08/31 10:03:44;;;;;;;11.57;10.47;;;;;;;19.87;100.00;100649.34;4970639;28;20669;-75
2022/08/31 10:06:45;;;;;;;12.60;11.50;;;;;;;19.37;100.00;100653.09;4963709;28;20276;-75
2022/08/31 10:09:36;;;;;;;15.30;14.10;;;;;;;19.17;100.00;100646.03;4919616;28;20262;-76
2022/08/31 10:12:08;;;;;;;19.30;17.60;;;;;;;19.07;100.00;100645.53;4966888;28;20196;-76
2022/08/31 10:14:56;;;;;;;23.33;21.27;;;;;;;19.12;100.00;100637.47;4962434;28;20266;-76
2022/08/31 10:17:34;;;;;;;28.27;25.70;;;;;;;19.09;100.00;100655.94;4968385;28;20214;-76
2022/08/31 10:20:07;;;;;;;28.43;25.90;;;;;;;19.16;100.00;100647.78;4966354;28;20239;-75
2022/08/31 10:22:44;;;;;;;33.43;30.27;;;;;;;19.25;100.00;100648.34;4969257;28;20246;-78
2022/08/31 10:25:30;;;;;;;35.40;31.77;;;;;;;19.27;100.00;100642.09;4965968;28;20209;-76
2022/08/31 10:28:14;;;;;;;37.40;33.63;;;;;;;19.30;100.00;100649.00;4959889;28;20639;-78
2022/08/31 10:30:46;;;;;;;38.33;34.43;;;;;;;19.31;100.00;100648.94;4967927;28;20181;-77
2022/08/31 10:33:19;;;;;;;39.97;35.87;;;;;;;19.29;100.00;100648.16;4968841;28;20314;-75
2022/08/31 10:35:52;;;;;;;40.63;36.43;;;;;;;19.19;100.00;100652.91;4970089;28;20273;-76
2022/08/31 10:38:33;;;;;;;45.57;40.83;;;;;;;19.01;100.00;100645.75;4977006;28;20202;-75
2022/08/31 10:41:01;;;;;;;45.27;40.53;;;;;;;18.76;100.00;100644.03;4969016;28;20205;-76
2022/08/31 10:43:37;;;;;;;45.33;40.67;;;;;;;18.67;100.00;100649.63;4971914;28;20187;-76
2022/08/31 10:46:04;;;;;;;48.50;43.50;;;;;;;18.62;100.00;100652.41;4968708;28;20204;-75
2022/08/31 10:48:31;;;;;;;48.93;43.60;;;;;;;18.65;100.00;100656.69;4971589;28;20268;-76
2022/08/31 10:51:16;;;;;;;43.23;38.80;;;;;;;18.58;100.00;100658.69;4966450;28;20217;-78
2022/08/31 10:53:45;;;;;;;39.33;35.33;;;;;;;18.47;100.00;100659.06;4965399;28;20240;-76
2022/08/31 10:56:34;;;;;;;34.03;30.60;;;;;;;18.39;100.00;100654.09;4966405;28;20217;-77
2022/08/31 10:59:26;;;;;;;30.93;28.03;;;;;;;18.26;100.00;100668.56;4974484;28;20277;-75
2022/08/31 11:02:03;;;;;;;31.23;28.13;;;;;;;18.33;100.00;100671.81;4969194;28;20194;-75
2022/08/31 11:04:47;;;;;;;30.07;27.17;;;;;;;18.32;100.00;100667.47;4958751;28;20194;-75
2022/08/31 11:07:38;;;;;;;29.43;26.43;;;;;;;18.21;100.00;100663.47;4977239;28;20217;-77
2022/08/31 11:10:15;;;;;;;29.70;26.83;;;;;;;18.36;100.00;100662.06;4969864;28;20193;-77
2022/08/31 11:12:45;;;;;;;27.37;24.93;;;;;;;18.19;100.00;100667.91;4979775;28;20229;-75
2022/08/31 11:15:32;;;;;;;29.23;26.47;;;;;;;18.23;100.00;100659.00;4968165;28;20222;-78
2022/08/31 11:18:19;;;;;;;28.43;25.67;;;;;;;18.20;100.00;100660.88;4981608;28;20195;-76
2022/08/31 11:20:54;;;;;;;30.17;27.43;;;;;;;18.23;100.00;100661.63;4974598;28;20561;-75
2022/08/31 11:23:25;;;;;;;31.33;28.37;;;;;;;18.29;100.00;100652.72;4969365;28;20700;-75
2022/08/31 11:26:14;;;;;;;30.57;27.77;;;;;;;18.38;100.00;100648.91;4986509;28;20220;-77
2022/08/31 11:28:47;;;;;;;30.63;27.83;;;;;;;18.44;100.00;100651.31;4967352;28;20185;-76
2022/08/31 11:31:23;;;;;;;27.20;24.80;;;;;;;18.27;100.00;100647.53;4975613;28;20190;-76
2022/08/31 11:33:53;;;;;;;28.90;26.20;;;;;;;18.40;100.00;100647.94;4976514;28;20204;-76
2022/08/31 11:36:40;;;;;;;28.53;25.87;;;;;;;18.30;100.00;100640.47;4975655;28;20218;-76